Time;durP1;ratioP1;P1;durP2;ratioP2;P2;SDS_P1;SDS_P2;PMS_P1;PMS_P2;Temp;Humidity;BMP_temperature;BMP_pressure;BME280_temperature;BME280_humidity;BME280_pressure;Samples;Min_cycle;Max_cycle;Signal;HPM_P1;HPM_P2
2024/01/03 00:01:29;;;;;;;;;;;;;;;4.41;89.80;98599.97;110049;1279;23092;-84
2024/01/03 00:20:05;;;;;;;;;;;;;;;4.27;90.06;98587.59;110220;1278;22412;-84
2024/01/03 00:22:32;;;;;;;;;;;;;;;4.28;90.15;98584.63;110038;1279;22393;-84
2024/01/03 00:25:08;;;;;;;;;;;;;;;4.26;89.86;98573.49;110302;1273;22401;-83
2024/01/03 00:27:34;;;;;;;;;;;;;;;4.26;89.93;98570.52;110274;1277;22262;-85
2024/01/03 00:30:06;;;;;;;;;;;;;;;4.28;90.09;98567.36;110441;1277;22619;-83
2024/01/03 00:32:33;;;;;;;;;;;;;;;4.26;90.05;98565.48;110239;1278;22430;-85
2024/01/03 00:35:02;;;;;;;;;;;;;;;4.27;90.30;98554.83;110069;1275;22402;-86
2024/01/03 00:37:29;;;;;;;;;;;;;;;4.29;90.27;98544.36;110096;1278;22409;-83
2024/01/03 00:39:57;;;;;;;;;;;;;;;4.26;90.00;98545.61;110113;1273;22415;-84
2024/01/03 00:42:24;;;;;;;;;;;;;;;4.22;89.83;98546.52;110203;1278;23080;-83
2024/01/03 00:44:50;;;;;;;;;;;;;;;4.20;90.18;98542.54;110246;1278;22510;-83
2024/01/03 00:47:18;;;;;;;;;;;;;;;4.22;90.38;98540.59;110258;1279;22382;-83
2024/01/03 00:53:38;;;;;;;;;;;;;;;4.30;90.60;98530.23;110232;1278;23092;-82
2024/01/03 00:56:05;;;;;;;;;;;;;;;4.32;90.65;98521.65;109922;1283;22409;-82
2024/01/03 00:58:31;;;;;;;;;;;;;;;4.26;89.94;98514.08;109916;1277;22404;-82
2024/01/03 01:00:57;;;;;;;;;;;;;;;4.21;90.23;98507.16;109954;1282;22412;-82
2024/01/03 01:03:24;;;;;;;;;;;;;;;4.19;90.29;98508.58;109969;1282;22314;-82
2024/01/03 01:13:47;;;;;;;;;;;;;;;4.18;90.68;98485.78;110130;1277;22389;-85
2024/01/03 01:16:14;;;;;;;;;;;;;;;4.17;90.67;98482.83;110359;1277;22400;-86
2024/01/03 01:18:40;;;;;;;;;;;;;;;4.19;90.78;98474.26;110354;1277;22359;-85
2024/01/03 01:33:10;;;;;;;;;;;;;;;4.30;90.87;98443.96;110347;1277;22126;-84
2024/01/03 01:35:37;;;;;;;;;;;;;;;4.32;90.71;98438.55;110429;1275;22343;-85
2024/01/03 01:38:06;;;;;;;;;;;;;;;4.29;90.52;98430.55;110398;1277;22913;-84
2024/01/03 01:40:32;;;;;;;;;;;;;;;4.28;90.54;98427.63;110409;1275;22556;-84
2024/01/03 01:42:58;;;;;;;;;;;;;;;4.27;90.34;98425.70;110403;1277;22393;-84
2024/01/03 01:45:26;;;;;;;;;;;;;;;4.28;90.67;98420.80;110409;1272;22171;-83
2024/01/03 01:47:52;;;;;;;;;;;;;;;4.32;90.75;98416.92;110257;1278;22340;-83
2024/01/03 01:50:20;;;;;;;;;;;;;;;4.38;91.00;98414.56;110299;1275;22354;-83
2024/01/03 01:52:48;;;;;;;;;;;;;;;4.43;90.87;98410.64;110230;1277;22568;-83
2024/01/03 01:55:15;;;;;;;;;;;;;;;4.40;90.35;98405.45;109897;1283;22418;-83
2024/01/03 02:01:36;;;;;;;;;;;;;;;4.40;90.52;98401.28;109926;1283;23170;-83
2024/01/03 02:08:03;;;;;;;;;;;;;;;4.33;90.20;98394.08;110010;1283;22341;-83
2024/01/03 02:18:23;;;;;;;;;;;;;;;4.39;90.62;98377.77;110509;1276;23108;-85
2024/01/03 02:20:50;;;;;;;;;;;;;;;4.42;90.52;98370.57;110312;1276;22343;-86
2024/01/03 02:23:16;;;;;;;;;;;;;;;4.43;90.32;98368.30;110202;1276;22313;-87
2024/01/03 02:36:10;;;;;;;;;;;;;;;4.48;90.45;98353.58;109929;1282;22486;-83
2024/01/03 02:38:36;;;;;;;;;;;;;;;4.52;90.49;98351.23;109692;1287;22448;-83
2024/01/03 02:41:03;;;;;;;;;;;;;;;4.51;89.94;98350.55;109719;1286;22436;-84
2024/01/03 02:43:29;;;;;;;;;;;;;;;4.46;89.87;98348.70;109644;1287;22427;-84
2024/01/03 02:45:56;;;;;;;;;;;;;;;4.44;90.06;98347.17;109607;1287;22405;-83
2024/01/03 02:48:22;;;;;;;;;;;;;;;4.43;90.37;98344.23;109720;1287;22386;-83
2024/01/03 02:50:48;;;;;;;;;;;;;;;4.45;90.46;98337.92;109533;1287;23224;-82
2024/01/03 02:53:16;;;;;;;;;;;;;;;4.50;90.58;98332.11;109717;1287;22843;-82
2024/01/03 02:55:42;;;;;;;;;;;;;;;4.53;90.03;98328.73;109671;1283;22431;-83
2024/01/03 02:58:08;;;;;;;;;;;;;;;4.53;90.16;98326.83;109954;1280;22324;-83
2024/01/03 03:00:36;;;;;;;;;;;;;;;4.52;90.17;98323.52;110210;1276;22460;-84
2024/01/03 03:03:03;;;;;;;;;;;;;;;4.52;90.10;98317.59;110291;1276;22419;-84
2024/01/03 03:05:29;;;;;;;;;;;;;;;4.50;90.07;98318.85;110348;1276;23040;-84
2024/01/03 03:07:56;;;;;;;;;;;;;;;4.48;89.96;98310.52;110261;1276;22366;-83
2024/01/03 03:10:22;;;;;;;;;;;;;;;4.41;89.40;98310.28;110306;1275;22196;-82
2024/01/03 03:12:48;;;;;;;;;;;;;;;4.36;89.85;98302.88;110277;1276;22350;-84
2024/01/03 03:15:15;;;;;;;;;;;;;;;4.38;90.00;98296.74;110216;1276;22433;-84
2024/01/03 03:17:41;;;;;;;;;;;;;;;4.41;90.28;98297.20;110285;1276;22414;-82
2024/01/03 03:20:08;;;;;;;;;;;;;;;4.44;90.04;98293.33;109920;1280;22417;-83
2024/01/03 03:22:35;;;;;;;;;;;;;;;4.45;90.04;98292.08;110021;1282;23096;-84
2024/01/03 03:25:01;;;;;;;;;;;;;;;4.45;89.96;98283.19;110004;1279;22399;-84
2024/01/03 03:27:28;;;;;;;;;;;;;;;4.46;90.19;98282.30;109915;1282;22355;-84
2024/01/03 03:29:54;;;;;;;;;;;;;;;4.44;89.70;98276.06;109921;1282;22398;-87
2024/01/03 03:32:22;;;;;;;;;;;;;;;4.40;89.76;98274.06;109704;1288;22441;-84
2024/01/03 03:34:50;;;;;;;;;;;;;;;4.37;89.86;98273.94;109708;1285;22379;-83
2024/01/03 03:37:16;;;;;;;;;;;;;;;4.33;89.74;98266.33;109721;1283;22451;-85
2024/01/03 03:39:42;;;;;;;;;;;;;;;4.34;90.01;98260.05;109968;1283;22419;-84
2024/01/03 03:42:09;;;;;;;;;;;;;;;4.38;90.15;98263.80;109924;1283;22576;-85
2024/01/03 03:44:40;;;;;;;;;;;;;;;4.37;89.41;98254.25;110005;1283;22472;-84
2024/01/03 03:47:07;;;;;;;;;;;;;;;4.40;89.71;98256.09;109718;1288;22521;-83
2024/01/03 03:49:33;;;;;;;;;;;;;;;4.46;90.05;98247.98;109773;1281;22428;-84
2024/01/03 03:51:59;;;;;;;;;;;;;;;4.49;89.72;98246.19;110007;1281;22437;-83
2024/01/03 03:54:26;;;;;;;;;;;;;;;4.48;89.63;98241.49;109997;1281;22428;-82
2024/01/03 03:56:53;;;;;;;;;;;;;;;4.48;89.74;98239.40;110012;1281;22451;-83
2024/01/03 03:59:19;;;;;;;;;;;;;;;4.49;89.72;98235.39;110119;1281;22417;-84
2024/01/03 04:01:49;;;;;;;;;;;;;;;4.42;89.16;98230.27;110065;1281;22405;-84
2024/01/03 04:04:17;;;;;;;;;;;;;;;4.40;89.72;98229.08;110078;1279;22418;-84
2024/01/03 04:06:43;;;;;;;;;;;;;;;4.43;89.74;98226.06;109888;1287;22525;-84
2024/01/03 04:09:10;;;;;;;;;;;;;;;4.41;89.28;98223.14;109984;1286;22417;-84
2024/01/03 04:11:40;;;;;;;;;;;;;;;4.38;89.61;98220.94;110051;1285;22459;-83
2024/01/03 04:14:07;;;;;;;;;;;;;;;4.38;89.61;98215.02;110063;1284;22376;-83
2024/01/03 04:16:34;;;;;;;;;;;;;;;4.36;89.74;98211.91;109908;1285;22399;-85
2024/01/03 04:19:03;;;;;;;;;;;;;;;4.36;90.01;98206.86;109910;1285;22407;-84
2024/01/03 04:21:31;;;;;;;;;;;;;;;4.36;89.91;98202.67;109923;1285;22582;-85
2024/01/03 04:23:57;;;;;;;;;;;;;;;4.36;90.20;98198.66;109536;1290;22438;-84
2024/01/03 04:26:24;;;;;;;;;;;;;;;4.38;90.24;98194.44;109519;1290;22407;-84
2024/01/03 04:28:52;;;;;;;;;;;;;;;4.42;90.42;98191.41;109493;1290;22401;-84
2024/01/03 04:31:18;;;;;;;;;;;;;;;4.46;90.76;98188.52;109623;1286;22434;-84
2024/01/03 04:33:45;;;;;;;;;;;;;;;4.53;90.68;98185.11;109798;1282;22867;-84
2024/01/03 04:36:53;;;;;;;;;;;;;;;4.56;90.91;98184.16;109767;1276;22519;-84
2024/01/03 04:39:20;;;;;;;;;;;;;;;4.61;90.76;98184.59;109877;1286;22505;-84
2024/01/03 04:41:46;;;;;;;;;;;;;;;4.59;90.39;98180.62;109840;1281;22432;-81
2024/01/03 04:44:12;;;;;;;;;;;;;;;4.56;90.45;98179.98;110041;1278;22392;-85
2024/01/03 04:46:39;;;;;;;;;;;;;;;4.56;90.67;98173.54;110074;1280;22368;-84
2024/01/03 04:49:05;;;;;;;;;;;;;;;4.57;90.80;98172.98;110049;1281;22363;-83
2024/01/03 04:51:31;;;;;;;;;;;;;;;4.56;90.72;98169.35;110030;1281;22394;-83
2024/01/03 04:53:58;;;;;;;;;;;;;;;4.56;90.68;98167.79;110029;1280;22407;-83
2024/01/03 04:56:26;;;;;;;;;;;;;;;4.55;90.82;98162.58;110037;1280;22387;-82
2024/01/03 04:58:52;;;;;;;;;;;;;;;4.54;90.83;98161.54;110019;1280;22398;-82
2024/01/03 05:01:19;;;;;;;;;;;;;;;4.57;90.86;98159.74;110047;1280;22472;-82
2024/01/03 05:03:45;;;;;;;;;;;;;;;4.60;90.81;98154.97;110050;1281;23046;-81
2024/01/03 05:06:12;;;;;;;;;;;;;;;4.63;90.97;98154.36;110052;1280;22414;-83
2024/01/03 05:08:38;;;;;;;;;;;;;;;4.69;91.04;98151.81;110051;1277;22415;-84
2024/01/03 05:11:04;;;;;;;;;;;;;;;4.74;90.95;98149.98;110179;1277;22368;-82
2024/01/03 05:13:31;;;;;;;;;;;;;;;4.73;90.68;98147.56;110078;1280;22380;-82
2024/01/03 05:15:58;;;;;;;;;;;;;;;4.74;90.96;98144.04;110035;1279;22361;-82
2024/01/03 05:18:26;;;;;;;;;;;;;;;4.75;90.81;98139.85;110058;1280;22484;-84
2024/01/03 05:20:53;;;;;;;;;;;;;;;4.71;90.48;98138.52;110023;1280;22469;-85
2024/01/03 05:23:19;;;;;;;;;;;;;;;4.68;90.79;98136.30;110149;1279;23110;-84
2024/01/03 05:25:47;;;;;;;;;;;;;;;4.72;91.00;98133.29;110152;1279;23071;-84
2024/01/03 05:28:13;;;;;;;;;;;;;;;4.74;90.87;98128.02;110124;1279;23154;-82
2024/01/03 05:30:40;;;;;;;;;;;;;;;4.75;90.99;98124.84;110267;1279;23054;-86
2024/01/03 05:33:08;;;;;;;;;;;;;;;4.79;91.18;98125.29;109814;1285;22472;-89
2024/01/03 05:35:35;;;;;;;;;;;;;;;4.81;91.04;98126.98;109982;1281;23117;-84
2024/01/03 05:38:01;;;;;;;;;;;;;;;4.78;90.82;98129.30;109952;1282;22332;-85
2024/01/03 05:40:27;;;;;;;;;;;;;;;4.76;90.82;98131.45;109939;1284;22419;-85
2024/01/03 05:42:54;;;;;;;;;;;;;;;4.76;90.75;98127.25;109877;1284;22475;-86
2024/01/03 05:45:20;;;;;;;;;;;;;;;4.78;90.87;98123.39;109869;1285;22438;-85
2024/01/03 05:48:12;;;;;;;;;;;;;;;4.80;90.98;98119.33;109977;1277;22489;-86
2024/01/03 05:50:39;;;;;;;;;;;;;;;4.84;91.16;98120.82;109831;1288;23069;-82
2024/01/03 05:53:07;;;;;;;;;;;;;;;4.85;91.18;98120.09;109813;1288;22502;-87
2024/01/03 05:55:33;;;;;;;;;;;;;;;4.86;91.11;98119.88;109721;1289;23240;-85
2024/01/03 05:57:59;;;;;;;;;;;;;;;4.86;91.07;98120.74;109716;1286;23509;-83
2024/01/03 06:00:25;;;;;;;;;;;;;;;4.83;90.94;98121.86;109808;1285;22425;-84
2024/01/03 06:02:51;;;;;;;;;;;;;;;4.82;91.24;98121.36;109605;1289;22414;-83
2024/01/03 06:05:18;;;;;;;;;;;;;;;4.82;91.19;98120.84;109646;1288;22401;-84
2024/01/03 06:07:44;;;;;;;;;;;;;;;4.80;90.95;98113.05;109654;1285;22455;-84
2024/01/03 06:10:11;;;;;;;;;;;;;;;4.76;91.03;98118.55;109880;1285;22377;-84
2024/01/03 06:12:39;;;;;;;;;;;;;;;4.73;91.00;98119.48;109866;1285;22373;-86
2024/01/03 06:15:06;;;;;;;;;;;;;;;4.66;90.73;98111.77;109799;1285;22453;-85
2024/01/03 06:21:29;;;;;;;;;;;;;;;4.75;91.69;98104.95;110110;1280;22375;-86
2024/01/03 06:23:57;;;;;;;;;;;;;;;4.84;91.92;98109.46;110098;1280;22258;-87
2024/01/03 06:26:29;;;;;;;;;;;;;;;4.92;91.93;98105.45;109951;1285;22554;-86
2024/01/03 06:28:57;;;;;;;;;;;;;;;4.99;91.96;98106.70;109948;1285;22436;-88
2024/01/03 06:34:38;;;;;;;;;;;;;;;5.02;91.70;98105.39;109586;1285;491943;-88
2024/01/03 06:37:33;;;;;;;;;;;;;;;5.05;91.64;98103.41;109933;1285;22416;-88
2024/01/03 06:40:00;;;;;;;;;;;;;;;5.07;91.65;98098.99;109557;1289;22419;-84
2024/01/03 06:42:26;;;;;;;;;;;;;;;5.08;91.47;98093.21;109619;1288;22421;-84
2024/01/03 06:44:53;;;;;;;;;;;;;;;5.08;91.50;98091.30;109476;1290;22401;-85
2024/01/03 06:47:20;;;;;;;;;;;;;;;5.05;91.24;98090.67;109440;1290;22429;-84
2024/01/03 06:49:47;;;;;;;;;;;;;;;5.04;91.47;98084.77;109467;1290;22378;-83
2024/01/03 06:52:13;;;;;;;;;;;;;;;5.07;91.68;98082.78;109740;1287;22435;-83
2024/01/03 06:54:39;;;;;;;;;;;;;;;5.05;91.22;98080.04;109753;1287;23117;-83
2024/01/03 06:57:06;;;;;;;;;;;;;;;5.03;91.24;98081.46;109562;1285;22493;-85
2024/01/03 06:59:38;;;;;;;;;;;;;;;5.03;91.38;98077.13;109847;1284;22423;-83
2024/01/03 07:02:05;;;;;;;;;;;;;;;5.06;91.62;98077.91;109886;1280;22515;-83
2024/01/03 07:04:31;;;;;;;;;;;;;;;5.08;91.57;98075.23;109940;1282;22441;-86
2024/01/03 07:06:58;;;;;;;;;;;;;;;5.09;91.71;98072.78;109945;1284;22948;-85
2024/01/03 07:13:32;;;;;;;;;;;;;;;5.11;91.86;98068.52;109554;1290;22347;-84
2024/01/03 07:16:00;;;;;;;;;;;;;;;5.12;91.68;98068.52;109676;1288;22460;-86
2024/01/03 07:18:27;;;;;;;;;;;;;;;5.12;91.95;98065.04;109656;1288;22426;-85
2024/01/03 07:25:25;;;;;;;;;;;;;;;5.12;91.83;98061.19;109800;1287;23226;-86
2024/01/03 07:28:22;;;;;;;;;;;;;;;5.09;91.77;98061.63;109666;1286;23301;-85
2024/01/03 07:30:48;;;;;;;;;;;;;;;5.06;91.73;98053.14;109830;1286;22605;-84
2024/01/03 07:33:15;;;;;;;;;;;;;;;5.05;91.65;98054.04;109300;1289;23196;-84
2024/01/03 07:35:46;;;;;;;;;;;;;;;5.04;91.60;98051.98;109411;1293;22452;-85
2024/01/03 07:38:13;;;;;;;;;;;;;;;5.04;91.90;98046.55;109552;1290;22461;-85
2024/01/03 07:40:39;;;;;;;;;;;;;;;5.09;92.10;98048.88;109402;1293;23311;-85
2024/01/03 07:43:30;;;;;;;;;;;;;;;5.13;92.11;98044.08;109372;1286;22415;-86
2024/01/03 07:49:50;;;;;;;;;;;;;;;5.17;92.06;98043.63;109767;1288;22197;-85
2024/01/03 07:53:11;;;;;;;;;;;;;;;;;;;;;
2024/01/03 07:55:39;;;;;;;;;;;;;;;5.16;92.17;98042.43;109916;1280;23088;-89
2024/01/03 07:58:08;;;;;;;;;;;;;;;5.16;92.20;98041.74;109958;1285;23179;-89
2024/01/03 08:00:36;;;;;;;;;;;;;;;5.17;92.16;98044.17;109969;1281;23342;-90
2024/01/03 08:03:04;;;;;;;;;;;;;;;5.15;92.21;98042.80;109945;1285;22452;-85
2024/01/03 08:05:36;;;;;;;;;;;;;;;5.15;92.38;98044.04;109842;1272;22473;-86
2024/01/03 08:08:03;;;;;;;;;;;;;;;5.13;92.18;98044.95;109870;1285;23190;-85
2024/01/03 08:10:31;;;;;;;;;;;;;;;5.14;92.48;98045.11;110025;1280;22488;-85
2024/01/03 08:12:59;;;;;;;;;;;;;;;5.18;92.64;98039.61;109728;1287;23240;-90
2024/01/03 08:15:46;;;;;;;;;;;;;;;5.25;92.69;98035.59;109836;1286;22527;-91
2024/01/03 08:18:14;;;;;;;;;;;;;;;5.30;92.62;98040.70;109504;1292;22480;-91
2024/01/03 08:20:42;;;;;;;;;;;;;;;5.36;92.80;98035.49;109444;1291;22585;-87
2024/01/03 08:23:10;;;;;;;;;;;;;;;5.42;92.79;98032.88;109436;1287;22490;-84
2024/01/03 08:25:37;;;;;;;;;;;;;;;5.47;92.70;98033.09;109436;1284;22768;-85
2024/01/03 08:28:05;;;;;;;;;;;;;;;5.51;92.64;98032.46;109416;1291;22445;-84
2024/01/03 08:42:49;;;;;;;;;;;;;;;5.45;92.34;98017.96;110213;1280;22129;-87
2024/01/03 08:45:17;;;;;;;;;;;;;;;5.41;92.02;98008.11;110176;1280;22414;-87
2024/01/03 08:47:44;;;;;;;;;;;;;;;5.40;92.27;98014.08;110096;1280;22239;-87
2024/01/03 08:54:14;;;;;;;;;;;;;;;5.46;92.63;98011.65;110194;1280;22309;-86
2024/01/03 08:56:41;;;;;;;;;;;;;;;5.51;92.45;98009.41;110193;1276;22436;-84
2024/01/03 08:59:11;;;;;;;;;;;;;;;5.53;92.63;98005.17;110117;1279;22399;-85
2024/01/03 09:01:37;;;;;;;;;;;;;;;5.59;92.87;98005.04;110120;1280;22386;-84
2024/01/03 09:04:04;;;;;;;;;;;;;;;5.62;92.68;98000.23;110023;1281;22460;-83
2024/01/03 09:06:35;;;;;;;;;;;;;;;5.61;92.36;98007.08;110092;1281;22354;-88
2024/01/03 09:09:32;;;;;;;;;;;;;;;5.62;92.51;98010.38;109897;1286;23099;-88
2024/01/03 09:12:00;;;;;;;;;;;;;;;5.61;92.53;98004.79;109857;1286;22410;-89
2024/01/03 09:16:01;;;;;;;;;;;;;;;5.63;92.71;98002.10;109821;1286;22429;-88
2024/01/03 09:19:30;;;;;;;;;;;;;;;5.65;92.47;98001.19;108575;1301;22430;-88
2024/01/03 09:23:05;;;;;;;;;;;;;;;5.63;92.35;97997.77;107701;1308;22481;-87
2024/01/03 09:25:57;;;;;;;;;;;;;;;5.61;92.30;97995.02;107436;1311;22555;-87
2024/01/03 09:40:43;;;;;;;;;;;;;;;5.87;92.79;97981.73;107926;1306;23284;-87
2024/01/03 09:44:17;;;;;;;;;;;;;;;5.93;92.63;97975.95;108088;1304;22512;-90
2024/01/03 09:55:23;;;;;;;;;;;;;;;5.90;91.86;97977.61;109831;1287;22414;-90
2024/01/03 10:13:53;;;;;;;;;;;;;;;6.10;92.54;97972.88;110038;1284;22241;-84
2024/01/03 10:16:26;;;;;;;;;;;;;;;6.14;92.62;97967.50;109606;1283;22450;-84
2024/01/03 10:19:19;;;;;;;;;;;;;;;6.15;92.44;97962.95;109756;1285;22420;-86
2024/01/03 10:21:52;;;;;;;;;;;;;;;6.12;92.15;97962.68;109830;1285;22416;-86
2024/01/03 10:24:48;;;;;;;;;;;;;;;6.08;92.18;97961.07;109847;1285;22398;-86
2024/01/03 10:27:19;;;;;;;;;;;;;;;6.08;92.23;97957.73;109928;1278;22498;-86
2024/01/03 10:37:11;;;;;;;;;;;;;;;6.14;92.44;97958.78;110206;1280;22152;-86
2024/01/03 10:40:21;;;;;;;;;;;;;;;6.15;92.40;97957.88;109867;1286;22502;-88
2024/01/03 10:42:50;;;;;;;;;;;;;;;6.17;92.65;97953.98;109942;1286;22445;-88
2024/01/03 10:45:18;;;;;;;;;;;;;;;6.21;92.71;97953.17;109821;1286;22407;-88
2024/01/03 10:47:46;;;;;;;;;;;;;;;6.20;92.63;97946.21;109836;1286;22427;-87
2024/01/03 11:26:12;;;;;;;;;;;;;;;6.30;92.42;97933.48;110248;1280;22869;-89
2024/01/03 11:31:59;;;;;;;;;;;;;;;6.26;92.42;97929.06;109899;1285;22409;-87
2024/01/03 11:34:53;;;;;;;;;;;;;;;6.32;92.97;97924.15;109642;1289;23101;-89
2024/01/03 11:41:48;;;;;;;;;;;;;;;6.52;93.38;97916.36;109656;1289;22404;-90
2024/01/03 11:52:44;;;;;;;;;;;;;;;6.65;92.80;97905.44;109235;1292;23260;-92
2024/01/03 12:03:14;;;;;;;;;;;;;;;6.66;93.14;97900.15;109591;1285;23175;-88
2024/01/03 12:05:44;;;;;;;;;;;;;;;6.70;92.99;97906.52;108976;1290;22496;-88
2024/01/03 12:08:13;;;;;;;;;;;;;;;6.69;92.90;97911.98;108728;1291;23234;-88
2024/01/03 12:10:48;;;;;;;;;;;;;;;6.64;93.17;97911.24;108706;1295;23360;-88
2024/01/03 12:13:17;;;;;;;;;;;;;;;6.64;93.61;97913.01;109227;1290;22413;-88
2024/01/03 12:15:48;;;;;;;;;;;;;;;6.65;93.78;97916.30;108991;1296;22451;-89
2024/01/03 12:19:08;;;;;;;;;;;;;;;6.66;94.08;97915.57;109044;1296;22424;-88
2024/01/03 12:22:21;;;;;;;;;;;;;;;6.67;93.96;97919.70;109056;1295;22440;-88
2024/01/03 12:24:48;;;;;;;;;;;;;;;6.63;93.74;97919.35;109100;1293;23640;-87
2024/01/03 12:27:35;;;;;;;;;;;;;;;;;;;;;
2024/01/03 12:30:19;;;;;;;;;;;;;;;6.59;94.30;97925.94;109346;1293;22402;-88
2024/01/03 12:37:54;;;;;;;;;;;;;;;6.75;94.74;97915.64;109809;1290;22483;-86
2024/01/03 12:41:26;;;;;;;;;;;;;;;6.78;94.39;97913.77;109240;1297;22441;-88
2024/01/03 12:59:41;;;;;;;;;;;;;;;6.81;95.76;97933.80;104129;1290;5149830;-89
2024/01/03 13:18:55;;;;;;;;;;;;;;;6.80;96.40;97936.09;108735;1274;22934;-88
2024/01/03 13:21:24;;;;;;;;;;;;;;;6.81;96.80;97935.89;109393;1264;25244;-87
2024/01/03 13:23:55;;;;;;;;;;;;;;;6.83;96.97;97939.15;109448;1264;22776;-87
2024/01/03 13:27:51;;;;;;;;;;;;;;;6.84;97.15;97936.16;109021;1264;25273;-86
2024/01/03 13:30:19;;;;;;;;;;;;;;;6.81;97.28;97940.77;109082;1264;22916;-89
2024/01/03 13:33:15;;;;;;;;;;;;;;;6.83;97.71;97948.23;110339;1266;25491;-89
2024/01/03 13:59:04;;;;;;;;;;;;;;;6.70;98.61;97977.02;109654;1267;22436;-88
2024/01/03 14:05:44;;;;;;;;;;;;;;;6.67;98.97;97983.89;109650;1253;24243;-90
2024/01/03 14:17:00;;;;;;;;;;;;;;;6.71;98.73;97985.02;110088;1254;24244;-89
2024/01/03 14:20:15;;;;;;;;;;;;;;;6.68;97.91;97988.61;110041;1255;23030;-89
2024/01/03 14:27:11;;;;;;;;;;;;;;;6.71;98.22;97991.84;110584;1267;22612;-89
2024/01/03 14:41:13;;;;;;;;;;;;;;;6.48;96.70;98003.89;107720;1272;557610;-85
2024/01/03 14:43:44;;;;;;;;;;;;;;;6.39;96.04;98011.01;108733;1258;262594;-84
2024/01/03 14:46:11;;;;;;;;;;;;;;;6.29;95.63;98013.23;108995;1256;24126;-85
2024/01/03 14:48:38;;;;;;;;;;;;;;;6.18;96.14;98011.96;108988;1258;26495;-83
2024/01/03 14:51:04;;;;;;;;;;;;;;;6.19;97.60;98016.48;109019;1254;22506;-84
2024/01/03 14:53:32;;;;;;;;;;;;;;;6.20;98.07;98017.52;108793;1258;25381;-85
2024/01/03 14:55:58;;;;;;;;;;;;;;;6.23;98.12;98024.23;108466;1257;25341;-84
2024/01/03 14:58:26;;;;;;;;;;;;;;;6.20;97.08;98030.27;108383;1263;23857;-84
2024/01/03 15:07:17;;;;;;;;;;;;;;;6.15;96.61;98034.61;103524;1314;557098;-86
2024/01/03 15:09:44;;;;;;;;;;;;;;;6.05;96.53;98036.10;106128;1286;25355;-82
2024/01/03 15:12:10;;;;;;;;;;;;;;;6.04;96.47;98033.50;106277;1284;25374;-81
2024/01/03 15:14:37;;;;;;;;;;;;;;;6.04;96.74;98039.09;106097;1289;23036;-84
2024/01/03 15:17:04;;;;;;;;;;;;;;;6.01;96.42;98038.63;106138;1285;22662;-85
2024/01/03 15:19:32;;;;;;;;;;;;;;;5.95;96.60;98040.88;105823;1288;299549;-84
2024/01/03 15:22:05;;;;;;;;;;;;;;;5.92;96.70;98040.64;106132;1283;22519;-83
2024/01/03 15:24:36;;;;;;;;;;;;;;;5.82;96.63;98050.85;106020;1287;22523;-84
2024/01/03 15:27:02;;;;;;;;;;;;;;;5.75;96.87;98052.10;109665;1280;22391;-85
2024/01/03 15:29:29;;;;;;;;;;;;;;;5.70;97.02;98053.95;109829;1280;22455;-85
2024/01/03 15:31:57;;;;;;;;;;;;;;;5.75;97.71;98048.95;110075;1278;22435;-83
2024/01/03 15:34:24;;;;;;;;;;;;;;;5.81;97.74;98048.45;110103;1273;22377;-82
2024/01/03 15:36:51;;;;;;;;;;;;;;;5.85;97.33;98050.27;110108;1277;22417;-84
2024/01/03 15:39:18;;;;;;;;;;;;;;;5.87;97.16;98048.98;110164;1270;22429;-85
2024/01/03 15:41:45;;;;;;;;;;;;;;;5.88;96.72;98045.81;110204;1271;22414;-87
2024/01/03 15:44:12;;;;;;;;;;;;;;;5.91;96.87;98040.83;110160;1277;22427;-84
2024/01/03 15:46:38;;;;;;;;;;;;;;;5.94;96.41;98040.05;109877;1282;22541;-84
2024/01/03 15:49:04;;;;;;;;;;;;;;;5.95;96.77;98039.33;109964;1282;22430;-80
2024/01/03 15:51:32;;;;;;;;;;;;;;;6.02;96.93;98040.18;109943;1277;22491;-84
2024/01/03 15:54:00;;;;;;;;;;;;;;;6.03;96.65;98041.54;109584;1282;22472;-85
2024/01/03 15:56:26;;;;;;;;;;;;;;;6.05;96.70;98034.52;109558;1289;22438;-83
2024/01/03 15:58:53;;;;;;;;;;;;;;;6.09;96.87;98028.49;109702;1281;22846;-83
2024/01/03 16:01:19;;;;;;;;;;;;;;;6.14;96.94;98028.85;109117;1291;22481;-83
2024/01/03 16:03:45;;;;;;;;;;;;;;;6.15;96.49;98033.02;109113;1289;22680;-83
2024/01/03 16:06:12;;;;;;;;;;;;;;;6.17;96.65;98040.31;109266;1293;22516;-83
2024/01/03 16:08:39;;;;;;;;;;;;;;;6.22;96.62;98045.44;109174;1292;22599;-85
2024/01/03 16:11:06;;;;;;;;;;;;;;;6.26;96.66;98048.27;109459;1281;22448;-83
2024/01/03 16:13:32;;;;;;;;;;;;;;;6.35;96.77;98045.23;109974;1281;22504;-83
2024/01/03 16:15:59;;;;;;;;;;;;;;;6.43;96.79;98045.69;110071;1276;23241;-85
2024/01/03 16:18:25;;;;;;;;;;;;;;;6.49;96.73;98043.94;109994;1273;22462;-85
2024/01/03 16:20:53;;;;;;;;;;;;;;;6.52;96.15;98038.74;109949;1275;22461;-84
2024/01/03 16:23:20;;;;;;;;;;;;;;;6.51;95.96;98039.14;109691;1285;22422;-83
2024/01/03 16:25:47;;;;;;;;;;;;;;;6.52;95.94;98036.64;109421;1285;22446;-84
2024/01/03 16:28:13;;;;;;;;;;;;;;;6.52;95.71;98036.14;109450;1291;22421;-83
2024/01/03 16:30:39;;;;;;;;;;;;;;;6.52;95.61;98036.15;109421;1290;22439;-83
2024/01/03 16:33:07;;;;;;;;;;;;;;;6.50;94.91;98036.20;109441;1291;22446;-83
2024/01/03 16:35:33;;;;;;;;;;;;;;;6.45;94.70;98034.61;109414;1292;22456;-83
2024/01/03 16:38:00;;;;;;;;;;;;;;;6.46;94.73;98036.33;109240;1287;22653;-82
2024/01/03 16:40:30;;;;;;;;;;;;;;;6.47;94.24;98032.79;109268;1286;22458;-83
2024/01/03 16:42:57;;;;;;;;;;;;;;;6.50;94.37;98036.90;109519;1284;22944;-84
2024/01/03 16:45:23;;;;;;;;;;;;;;;6.53;94.20;98039.08;109596;1285;22494;-82
2024/01/03 16:47:50;;;;;;;;;;;;;;;6.54;93.76;98039.23;109588;1289;22457;-82
2024/01/03 16:50:16;;;;;;;;;;;;;;;6.53;93.36;98031.39;109574;1282;22407;-81
2024/01/03 16:52:44;;;;;;;;;;;;;;;6.52;93.20;98034.39;109589;1289;23266;-83
2024/01/03 16:55:11;;;;;;;;;;;;;;;6.47;93.12;98031.05;109639;1286;22459;-82
2024/01/03 16:57:39;;;;;;;;;;;;;;;6.47;93.61;98029.83;109361;1287;22445;-83
2024/01/03 17:00:09;;;;;;;;;;;;;;;6.43;93.15;98026.10;109773;1283;22490;-82
2024/01/03 17:02:35;;;;;;;;;;;;;;;6.40;93.40;98021.29;109685;1287;22435;-83
2024/01/03 17:05:01;;;;;;;;;;;;;;;6.41;93.41;98023.73;109696;1283;22558;-84
2024/01/03 17:07:28;;;;;;;;;;;;;;;6.39;93.17;98018.88;109595;1287;22484;-87
2024/01/03 17:09:59;;;;;;;;;;;;;;;6.41;93.41;98021.27;109780;1276;22581;-86
2024/01/03 17:12:25;;;;;;;;;;;;;;;6.47;93.77;98024.57;109937;1276;22607;-82
2024/01/03 17:14:52;;;;;;;;;;;;;;;6.51;93.34;98025.14;110084;1273;22462;-83
2024/01/03 17:17:20;;;;;;;;;;;;;;;6.51;93.18;98027.77;110099;1273;22408;-84
2024/01/03 17:19:48;;;;;;;;;;;;;;;6.48;92.98;98025.42;109932;1276;22442;-82
2024/01/03 17:22:16;;;;;;;;;;;;;;;6.47;93.16;98030.88;109894;1276;22505;-86
2024/01/03 17:24:47;;;;;;;;;;;;;;;6.49;93.20;98031.88;109908;1277;22446;-83
2024/01/03 17:27:14;;;;;;;;;;;;;;;6.48;93.13;98027.52;109885;1276;22546;-84
2024/01/03 17:29:40;;;;;;;;;;;;;;;6.43;92.74;98026.45;109928;1275;22434;-83
2024/01/03 17:32:06;;;;;;;;;;;;;;;6.39;92.81;98020.77;109465;1283;23253;-84
2024/01/03 17:34:34;;;;;;;;;;;;;;;6.38;93.14;98018.70;109595;1288;22417;-84
2024/01/03 17:37:03;;;;;;;;;;;;;;;6.37;92.83;98023.66;109608;1281;23411;-86
2024/01/03 17:39:30;;;;;;;;;;;;;;;6.30;92.60;98027.70;110051;1275;22457;-85
2024/01/03 17:41:57;;;;;;;;;;;;;;;6.28;92.73;98023.04;109984;1275;22492;-84
2024/01/03 17:44:23;;;;;;;;;;;;;;;6.27;92.47;98022.73;109935;1278;23113;-84
2024/01/03 17:46:50;;;;;;;;;;;;;;;6.26;92.12;98025.73;109898;1276;23161;-83
2024/01/03 17:49:18;;;;;;;;;;;;;;;6.20;91.69;98037.26;109977;1278;22520;-89
2024/01/03 17:51:44;;;;;;;;;;;;;;;6.17;91.98;98033.67;110080;1270;23161;-83
2024/01/03 17:54:13;;;;;;;;;;;;;;;6.12;91.87;98030.33;110162;1272;22463;-86
2024/01/03 17:56:41;;;;;;;;;;;;;;;6.11;91.89;98039.77;110207;1269;22394;-84
2024/01/03 17:59:10;;;;;;;;;;;;;;;6.07;91.73;98033.96;110133;1274;23138;-83
2024/01/03 18:01:41;;;;;;;;;;;;;;;6.05;91.19;98046.23;110266;1273;22393;-87
2024/01/03 18:04:10;;;;;;;;;;;;;;;5.90;90.75;98057.98;110142;1277;23120;-83
2024/01/03 18:06:36;;;;;;;;;;;;;;;5.83;91.24;98042.63;110199;1272;22473;-83
2024/01/03 18:09:04;;;;;;;;;;;;;;;5.86;92.00;98046.39;110288;1276;22424;-83